TimeAKDT,TemperatureF,Dew PointF,Humidity,Sea Level PressureIn,VisibilityMPH,Wind Direction,Wind SpeedMPH,Gust SpeedMPH,PrecipitationIn,Events,Conditions,WindDirDegrees,DateUTC
12:16 AM,46.4,42.8,87,29.76,10.0,Calm,Calm,-,N/A,,Overcast,0,2012-09-13 08:16:00
12:36 AM,46.4,42.8,87,29.76,10.0,Calm,Calm,-,N/A,,Overcast,0,2012-09-13 08:36:00
12:56 AM,44.6,42.8,93,29.76,10.0,Calm,Calm,-,N/A,,Overcast,0,2012-09-13 08:56:00
1:16 AM,44.6,42.8,93,29.76,10.0,Calm,Calm,-,N/A,,Mostly Cloudy,0,2012-09-13 09:16:00
1:36 AM,44.6,42.8,93,29.77,10.0,Calm,Calm,-,N/A,,Overcast,0,2012-09-13 09:36:00
1:56 AM,42.8,41.0,93,29.77,10.0,Calm,Calm,-,N/A,,Overcast,0,2012-09-13 09:56:00
2:16 AM,44.6,42.8,93,29.78,10.0,Calm,Calm,-,N/A,,Overcast,0,2012-09-13 10:16:00
2:36 AM,44.6,42.8,93,29.78,10.0,Calm,Calm,-,N/A,,Overcast,0,2012-09-13 10:36:00
2:56 AM,44.6,42.8,93,29.78,10.0,Calm,Calm,-,N/A,,Overcast,0,2012-09-13 10:56:00
3:16 AM,44.6,42.8,93,29.78,10.0,Calm,Calm,-,N/A,,Overcast,0,2012-09-13 11:16:00
3:36 AM,44.6,42.8,93,29.78,10.0,Calm,Calm,-,N/A,,Overcast,0,2012-09-13 11:36:00
3:56 AM,44.6,42.8,93,29.79,10.0,Calm,Calm,-,N/A,,Overcast,0,2012-09-13 11:56:00
4:16 AM,44.6,42.8,93,29.79,10.0,Calm,Calm,-,N/A,,Overcast,0,2012-09-13 12:16:00
4:36 AM,44.6,42.8,93,29.79,10.0,Calm,Calm,-,N/A,,Overcast,0,2012-09-13 12:36:00
4:56 AM,42.8,42.8,100,29.79,10.0,East,3.5,-,N/A,,Overcast,90,2012-09-13 12:56:00
5:16 AM,42.8,39.2,87,29.79,10.0,ESE,6.9,-,N/A,,Overcast,110,2012-09-13 13:16:00
5:36 AM,42.8,42.8,100,29.79,10.0,Calm,Calm,-,N/A,,Overcast,0,2012-09-13 13:36:00
5:56 AM,42.8,41.0,93,29.79,10.0,Calm,Calm,-,N/A,,Overcast,0,2012-09-13 13:56:00
6:16 AM,42.8,41.0,93,29.79,10.0,ENE,3.5,-,N/A,,Overcast,70,2012-09-13 14:16:00
6:36 AM,42.8,41.0,93,29.80,10.0,Calm,Calm,-,N/A,,Overcast,0,2012-09-13 14:36:00
6:56 AM,42.8,42.8,100,29.80,10.0,Calm,Calm,-,N/A,,Overcast,0,2012-09-13 14:56:00
7:16 AM,42.8,42.8,100,29.80,10.0,Calm,Calm,-,N/A,,Overcast,0,2012-09-13 15:16:00
7:36 AM,42.8,41.0,93,29.80,10.0,Calm,Calm,-,N/A,,Overcast,0,2012-09-13 15:36:00
7:56 AM,42.8,41.0,93,29.80,10.0,Calm,Calm,-,N/A,,Overcast,0,2012-09-13 15:56:00
8:16 AM,41.0,39.2,93,29.80,10.0,Calm,Calm,-,N/A,,Scattered Clouds,0,2012-09-13 16:16:00
8:36 AM,42.8,39.2,87,29.81,10.0,Calm,Calm,-,N/A,,Clear,0,2012-09-13 16:36:00
8:56 AM,42.8,41.0,93,29.81,10.0,Calm,Calm,-,N/A,,Clear,0,2012-09-13 16:56:00
9:16 AM,44.6,42.8,93,29.81,10.0,Calm,Calm,-,N/A,,Mostly Cloudy,0,2012-09-13 17:16:00
9:36 AM,44.6,42.8,93,29.81,10.0,Calm,Calm,-,N/A,,Scattered Clouds,0,2012-09-13 17:36:00
9:56 AM,46.4,44.6,93,29.81,10.0,Calm,Calm,-,N/A,,Clear,0,2012-09-13 17:56:00
10:16 AM,48.2,44.6,87,29.82,10.0,Calm,Calm,-,N/A,,Clear,0,2012-09-13 18:16:00
10:36 AM,48.2,44.6,87,29.82,10.0,Calm,Calm,-,N/A,,Clear,0,2012-09-13 18:36:00
10:56 AM,50.0,44.6,82,29.82,10.0,Calm,Calm,-,N/A,,Clear,0,2012-09-13 18:56:00
11:16 AM,50.0,44.6,82,29.82,10.0,NW,3.5,-,N/A,,Clear,320,2012-09-13 19:16:00
11:36 AM,51.8,42.8,71,29.82,10.0,Calm,Calm,-,N/A,,Clear,0,2012-09-13 19:36:00
11:56 AM,51.8,42.8,71,29.82,10.0,Calm,Calm,-,N/A,,Clear,0,2012-09-13 19:56:00
12:16 PM,51.8,42.8,71,29.82,10.0,Calm,Calm,-,N/A,,Partly Cloudy,0,2012-09-13 20:16:00
12:36 PM,51.8,42.8,71,29.82,10.0,Calm,Calm,-,N/A,,Scattered Clouds,0,2012-09-13 20:36:00
12:56 PM,51.8,42.8,71,29.81,10.0,Calm,Calm,-,N/A,,Overcast,0,2012-09-13 20:56:00
1:16 PM,51.8,42.8,71,29.81,10.0,Calm,Calm,-,N/A,,Overcast,0,2012-09-13 21:16:00
1:36 PM,53.6,42.8,67,29.81,10.0,Calm,Calm,-,N/A,,Overcast,0,2012-09-13 21:36:00
1:56 PM,53.6,41.0,62,29.81,10.0,Calm,Calm,-,N/A,,Overcast,0,2012-09-13 21:56:00
2:16 PM,53.6,42.8,67,29.81,10.0,Calm,Calm,-,N/A,,Overcast,0,2012-09-13 22:16:00
2:36 PM,53.6,42.8,67,29.81,10.0,West,4.6,-,N/A,,Overcast,280,2012-09-13 22:36:00
2:56 PM,53.6,41.0,62,29.80,10.0,NW,5.8,-,N/A,,Overcast,310,2012-09-13 22:56:00
3:16 PM,53.6,42.8,67,29.80,10.0,West,6.9,-,N/A,,Overcast,270,2012-09-13 23:16:00
3:36 PM,51.8,44.6,76,29.80,10.0,WSW,4.6,-,N/A,,Overcast,240,2012-09-13 23:36:00
3:56 PM,53.6,44.6,72,29.80,10.0,Calm,Calm,-,N/A,,Overcast,0,2012-09-13 23:56:00
4:16 PM,53.6,44.6,72,29.79,10.0,Calm,Calm,-,N/A,,Overcast,0,2012-09-14 00:16:00
4:36 PM,53.6,42.8,67,29.79,10.0,WSW,5.8,-,N/A,,Overcast,250,2012-09-14 00:36:00
4:56 PM,53.6,41.0,62,29.79,10.0,West,8.1,-,N/A,,Overcast,260,2012-09-14 00:56:00
5:16 PM,53.6,41.0,62,29.79,10.0,West,6.9,-,N/A,,Overcast,280,2012-09-14 01:16:00
5:36 PM,53.6,41.0,62,29.79,10.0,West,8.1,-,N/A,,Overcast,270,2012-09-14 01:36:00
5:56 PM,53.6,39.2,58,29.79,10.0,West,8.1,-,N/A,,Overcast,270,2012-09-14 01:56:00
6:16 PM,53.6,39.2,58,29.78,10.0,West,6.9,-,N/A,,Overcast,280,2012-09-14 02:16:00
6:36 PM,53.6,39.2,58,29.78,10.0,West,5.8,-,N/A,,Overcast,270,2012-09-14 02:36:00
6:56 PM,53.6,39.2,58,29.78,10.0,NW,3.5,-,N/A,,Overcast,310,2012-09-14 02:56:00
7:16 PM,51.8,41.0,67,29.78,10.0,WSW,3.5,-,N/A,,Overcast,240,2012-09-14 03:16:00
7:36 PM,51.8,41.0,67,29.77,10.0,WSW,3.5,-,N/A,,Overcast,240,2012-09-14 03:36:00
7:56 PM,50.0,42.8,76,29.77,10.0,Calm,Calm,-,N/A,,Overcast,0,2012-09-14 03:56:00
8:16 PM,48.2,42.8,82,29.77,10.0,Calm,Calm,-,N/A,,Overcast,0,2012-09-14 04:16:00
8:36 PM,48.2,42.8,82,29.77,10.0,Calm,Calm,-,N/A,,Overcast,0,2012-09-14 04:36:00
8:56 PM,48.2,42.8,82,29.77,10.0,Calm,Calm,-,N/A,,Overcast,0,2012-09-14 04:56:00
9:16 PM,46.4,42.8,87,29.77,10.0,Calm,Calm,-,N/A,,Overcast,0,2012-09-14 05:16:00
9:36 PM,46.4,42.8,87,29.78,10.0,Calm,Calm,-,N/A,,Overcast,0,2012-09-14 05:36:00
9:56 PM,46.4,42.8,87,29.78,10.0,Calm,Calm,-,N/A,,Overcast,0,2012-09-14 05:56:00
10:16 PM,44.6,42.8,93,29.78,10.0,Calm,Calm,-,N/A,,Overcast,0,2012-09-14 06:16:00
10:36 PM,44.6,42.8,93,29.78,10.0,Calm,Calm,-,N/A,,Overcast,0,2012-09-14 06:36:00
10:56 PM,44.6,41.0,87,29.77,10.0,Calm,Calm,-,N/A,,Overcast,0,2012-09-14 06:56:00
11:16 PM,44.6,41.0,87,29.78,10.0,Calm,Calm,-,N/A,,Overcast,0,2012-09-14 07:16:00
11:36 PM,44.6,41.0,87,29.78,10.0,Calm,Calm,-,N/A,,Overcast,0,2012-09-14 07:36:00
11:56 PM,42.8,41.0,93,29.78,10.0,Calm,Calm,-,N/A,,Overcast,0,2012-09-14 07:56:00